sensor_id;sensor_type;location;lat;lon;timestamp;temperature;humidity
75621;DHT22;64574;48.506;-2.750;2023-04-03T00:01:15;9.20;60.70
75621;DHT22;64574;48.506;-2.750;2023-04-03T00:03:41;9.10;60.90
75621;DHT22;64574;48.506;-2.750;2023-04-03T00:06:08;9.20;60.90
75621;DHT22;64574;48.506;-2.750;2023-04-03T00:08:36;9.20;61.00
75621;DHT22;64574;48.506;-2.750;2023-04-03T00:11:02;9.20;60.50
75621;DHT22;64574;48.506;-2.750;2023-04-03T00:13:28;9.20;60.50
75621;DHT22;64574;48.506;-2.750;2023-04-03T00:15:53;9.20;60.50
75621;DHT22;64574;48.506;-2.750;2023-04-03T00:18:20;9.20;60.80
75621;DHT22;64574;48.506;-2.750;2023-04-03T00:20:46;9.20;61.20
75621;DHT22;64574;48.506;-2.750;2023-04-03T00:23:12;9.20;60.90
75621;DHT22;64574;48.506;-2.750;2023-04-03T00:25:37;9.20;61.00
75621;DHT22;64574;48.506;-2.750;2023-04-03T00:28:04;9.10;61.40
75621;DHT22;64574;48.506;-2.750;2023-04-03T00:30:30;9.00;61.60
75621;DHT22;64574;48.506;-2.750;2023-04-03T00:32:55;9.00;61.90
75621;DHT22;64574;48.506;-2.750;2023-04-03T00:35:22;9.00;61.50
75621;DHT22;64574;48.506;-2.750;2023-04-03T00:37:51;8.90;61.60
75621;DHT22;64574;48.506;-2.750;2023-04-03T00:40:18;8.90;61.50
75621;DHT22;64574;48.506;-2.750;2023-04-03T00:42:46;8.80;61.70
75621;DHT22;64574;48.506;-2.750;2023-04-03T00:47:52;8.90;61.30
75621;DHT22;64574;48.506;-2.750;2023-04-03T00:50:18;8.90;61.50
75621;DHT22;64574;48.506;-2.750;2023-04-03T00:52:45;8.90;61.30
75621;DHT22;64574;48.506;-2.750;2023-04-03T00:55:12;8.90;61.20
75621;DHT22;64574;48.506;-2.750;2023-04-03T00:57:40;8.80;60.90
75621;DHT22;64574;48.506;-2.750;2023-04-03T01:00:09;8.80;60.50
75621;DHT22;64574;48.506;-2.750;2023-04-03T01:02:35;8.80;60.90
75621;DHT22;64574;48.506;-2.750;2023-04-03T01:05:02;8.70;60.70
75621;DHT22;64574;48.506;-2.750;2023-04-03T01:07:30;8.80;60.60
75621;DHT22;64574;48.506;-2.750;2023-04-03T01:09:58;8.80;60.50
75621;DHT22;64574;48.506;-2.750;2023-04-03T01:12:30;8.80;60.70
75621;DHT22;64574;48.506;-2.750;2023-04-03T01:14:58;8.80;60.70
75621;DHT22;64574;48.506;-2.750;2023-04-03T01:20:21;8.70;61.30
75621;DHT22;64574;48.506;-2.750;2023-04-03T01:28:08;8.60;61.70
75621;DHT22;64574;48.506;-2.750;2023-04-03T01:30:39;8.60;61.70
75621;DHT22;64574;48.506;-2.750;2023-04-03T01:33:07;8.60;61.90
75621;DHT22;64574;48.506;-2.750;2023-04-03T01:35:32;8.60;62.00
75621;DHT22;64574;48.506;-2.750;2023-04-03T01:37:58;8.60;61.90
75621;DHT22;64574;48.506;-2.750;2023-04-03T01:40:23;8.50;62.30
75621;DHT22;64574;48.506;-2.750;2023-04-03T01:42:49;8.50;62.60
75621;DHT22;64574;48.506;-2.750;2023-04-03T01:45:15;8.40;62.80
75621;DHT22;64574;48.506;-2.750;2023-04-03T01:47:40;8.50;63.00
75621;DHT22;64574;48.506;-2.750;2023-04-03T01:50:06;8.50;62.60
75621;DHT22;64574;48.506;-2.750;2023-04-03T01:52:32;8.60;62.70
75621;DHT22;64574;48.506;-2.750;2023-04-03T01:54:57;8.60;62.90
75621;DHT22;64574;48.506;-2.750;2023-04-03T01:57:23;8.40;64.00
75621;DHT22;64574;48.506;-2.750;2023-04-03T01:59:48;8.50;64.30
75621;DHT22;64574;48.506;-2.750;2023-04-03T02:02:14;8.30;65.00
75621;DHT22;64574;48.506;-2.750;2023-04-03T02:04:40;8.40;65.60
75621;DHT22;64574;48.506;-2.750;2023-04-03T02:07:06;8.40;65.70
75621;DHT22;64574;48.506;-2.750;2023-04-03T02:09:32;8.40;65.80
75621;DHT22;64574;48.506;-2.750;2023-04-03T02:11:57;8.40;66.00
75621;DHT22;64574;48.506;-2.750;2023-04-03T02:14:23;8.30;66.40
75621;DHT22;64574;48.506;-2.750;2023-04-03T02:16:49;8.20;66.70
75621;DHT22;64574;48.506;-2.750;2023-04-03T02:19:15;8.30;66.70
75621;DHT22;64574;48.506;-2.750;2023-04-03T02:21:41;8.20;66.80
75621;DHT22;64574;48.506;-2.750;2023-04-03T02:24:07;8.20;67.00
75621;DHT22;64574;48.506;-2.750;2023-04-03T02:26:33;8.20;67.20
75621;DHT22;64574;48.506;-2.750;2023-04-03T02:28:58;8.20;67.00
75621;DHT22;64574;48.506;-2.750;2023-04-03T02:31:24;8.10;67.30
75621;DHT22;64574;48.506;-2.750;2023-04-03T02:33:50;8.00;67.50
75621;DHT22;64574;48.506;-2.750;2023-04-03T02:36:16;8.00;67.70
75621;DHT22;64574;48.506;-2.750;2023-04-03T02:38:42;8.00;67.30
75621;DHT22;64574;48.506;-2.750;2023-04-03T02:41:10;8.00;67.80
75621;DHT22;64574;48.506;-2.750;2023-04-03T02:43:37;7.90;67.80
75621;DHT22;64574;48.506;-2.750;2023-04-03T02:46:03;8.00;67.90
75621;DHT22;64574;48.506;-2.750;2023-04-03T02:48:28;8.00;67.90
75621;DHT22;64574;48.506;-2.750;2023-04-03T02:50:54;8.00;67.70
75621;DHT22;64574;48.506;-2.750;2023-04-03T02:53:20;8.00;67.80
75621;DHT22;64574;48.506;-2.750;2023-04-03T02:55:45;8.00;67.70
75621;DHT22;64574;48.506;-2.750;2023-04-03T02:58:11;8.10;67.60
75621;DHT22;64574;48.506;-2.750;2023-04-03T03:00:37;8.00;67.60
75621;DHT22;64574;48.506;-2.750;2023-04-03T03:03:03;8.10;67.70
75621;DHT22;64574;48.506;-2.750;2023-04-03T03:05:29;8.10;67.70
75621;DHT22;64574;48.506;-2.750;2023-04-03T03:07:56;8.20;67.50
75621;DHT22;64574;48.506;-2.750;2023-04-03T03:10:22;8.10;67.70
75621;DHT22;64574;48.506;-2.750;2023-04-03T03:12:48;8.10;67.60
75621;DHT22;64574;48.506;-2.750;2023-04-03T03:15:14;8.20;67.40
75621;DHT22;64574;48.506;-2.750;2023-04-03T03:17:40;8.20;67.50
75621;DHT22;64574;48.506;-2.750;2023-04-03T03:20:07;8.20;67.30
75621;DHT22;64574;48.506;-2.750;2023-04-03T03:22:34;8.20;67.20
75621;DHT22;64574;48.506;-2.750;2023-04-03T03:25:00;8.20;67.60
75621;DHT22;64574;48.506;-2.750;2023-04-03T03:27:26;8.20;67.20
75621;DHT22;64574;48.506;-2.750;2023-04-03T03:29:52;8.10;67.20
75621;DHT22;64574;48.506;-2.750;2023-04-03T03:32:18;8.10;67.30
75621;DHT22;64574;48.506;-2.750;2023-04-03T03:34:43;8.20;67.10
75621;DHT22;64574;48.506;-2.750;2023-04-03T03:37:09;8.10;67.10
75621;DHT22;64574;48.506;-2.750;2023-04-03T03:39:34;8.10;67.10
75621;DHT22;64574;48.506;-2.750;2023-04-03T03:42:00;8.10;67.00
75621;DHT22;64574;48.506;-2.750;2023-04-03T03:44:26;8.00;67.40
75621;DHT22;64574;48.506;-2.750;2023-04-03T03:46:53;8.00;67.30
75621;DHT22;64574;48.506;-2.750;2023-04-03T03:49:18;8.10;67.00
75621;DHT22;64574;48.506;-2.750;2023-04-03T03:51:44;8.00;66.90
75621;DHT22;64574;48.506;-2.750;2023-04-03T03:54:11;8.10;66.60
75621;DHT22;64574;48.506;-2.750;2023-04-03T03:56:36;8.10;66.30
75621;DHT22;64574;48.506;-2.750;2023-04-03T03:59:02;8.30;65.40
75621;DHT22;64574;48.506;-2.750;2023-04-03T04:01:27;8.20;64.70
75621;DHT22;64574;48.506;-2.750;2023-04-03T04:03:53;8.20;64.60
75621;DHT22;64574;48.506;-2.750;2023-04-03T04:06:22;8.10;64.00
75621;DHT22;64574;48.506;-2.750;2023-04-03T04:08:48;8.00;62.00
75621;DHT22;64574;48.506;-2.750;2023-04-03T04:11:14;8.00;61.50
75621;DHT22;64574;48.506;-2.750;2023-04-03T04:13:39;8.10;61.20
75621;DHT22;64574;48.506;-2.750;2023-04-03T04:16:06;8.10;61.20
75621;DHT22;64574;48.506;-2.750;2023-04-03T04:18:32;8.20;61.80
75621;DHT22;64574;48.506;-2.750;2023-04-03T04:20:57;8.30;62.50
75621;DHT22;64574;48.506;-2.750;2023-04-03T04:23:23;8.20;62.90
75621;DHT22;64574;48.506;-2.750;2023-04-03T04:25:50;8.30;62.50
75621;DHT22;64574;48.506;-2.750;2023-04-03T04:28:16;8.30;62.50
75621;DHT22;64574;48.506;-2.750;2023-04-03T04:30:42;8.10;62.60
75621;DHT22;64574;48.506;-2.750;2023-04-03T04:33:08;8.00;62.80
75621;DHT22;64574;48.506;-2.750;2023-04-03T04:35:34;8.00;63.20
75621;DHT22;64574;48.506;-2.750;2023-04-03T04:38:00;8.00;62.80
75621;DHT22;64574;48.506;-2.750;2023-04-03T04:40:26;8.10;62.90
75621;DHT22;64574;48.506;-2.750;2023-04-03T04:42:51;8.10;62.50
75621;DHT22;64574;48.506;-2.750;2023-04-03T04:45:17;8.20;62.20
75621;DHT22;64574;48.506;-2.750;2023-04-03T04:47:43;8.10;62.50
75621;DHT22;64574;48.506;-2.750;2023-04-03T04:50:09;8.10;62.30
75621;DHT22;64574;48.506;-2.750;2023-04-03T04:52:35;8.00;62.20
75621;DHT22;64574;48.506;-2.750;2023-04-03T04:55:01;8.00;62.20
75621;DHT22;64574;48.506;-2.750;2023-04-03T04:57:26;8.00;62.50
75621;DHT22;64574;48.506;-2.750;2023-04-03T04:59:52;8.00;62.20
75621;DHT22;64574;48.506;-2.750;2023-04-03T05:02:18;8.00;62.00
75621;DHT22;64574;48.506;-2.750;2023-04-03T05:04:43;8.00;62.20
75621;DHT22;64574;48.506;-2.750;2023-04-03T05:07:09;8.00;62.20
75621;DHT22;64574;48.506;-2.750;2023-04-03T05:09:35;8.00;61.90
75621;DHT22;64574;48.506;-2.750;2023-04-03T05:12:01;7.80;62.20
75621;DHT22;64574;48.506;-2.750;2023-04-03T05:14:28;7.80;62.10
75621;DHT22;64574;48.506;-2.750;2023-04-03T05:16:53;7.80;62.10
75621;DHT22;64574;48.506;-2.750;2023-04-03T05:19:20;7.80;62.00
75621;DHT22;64574;48.506;-2.750;2023-04-03T05:21:46;7.80;62.30
75621;DHT22;64574;48.506;-2.750;2023-04-03T05:24:12;7.80;62.30
75621;DHT22;64574;48.506;-2.750;2023-04-03T05:26:37;7.80;63.00
75621;DHT22;64574;48.506;-2.750;2023-04-03T05:29:04;7.90;62.60
75621;DHT22;64574;48.506;-2.750;2023-04-03T05:31:30;7.80;62.30
75621;DHT22;64574;48.506;-2.750;2023-04-03T05:33:56;7.80;62.50
75621;DHT22;64574;48.506;-2.750;2023-04-03T05:36:21;8.00;62.00
75621;DHT22;64574;48.506;-2.750;2023-04-03T05:38:47;7.70;62.40
75621;DHT22;64574;48.506;-2.750;2023-04-03T05:41:14;7.80;62.60
75621;DHT22;64574;48.506;-2.750;2023-04-03T05:43:40;7.80;62.70
75621;DHT22;64574;48.506;-2.750;2023-04-03T05:46:14;7.80;62.60
75621;DHT22;64574;48.506;-2.750;2023-04-03T05:48:40;7.60;62.30
75621;DHT22;64574;48.506;-2.750;2023-04-03T05:51:07;7.80;62.30
75621;DHT22;64574;48.506;-2.750;2023-04-03T05:53:36;7.80;62.30
75621;DHT22;64574;48.506;-2.750;2023-04-03T05:56:04;7.80;61.90
75621;DHT22;64574;48.506;-2.750;2023-04-03T05:58:30;7.90;61.80
75621;DHT22;64574;48.506;-2.750;2023-04-03T06:00:56;7.80;61.90
75621;DHT22;64574;48.506;-2.750;2023-04-03T06:03:23;7.70;62.00
75621;DHT22;64574;48.506;-2.750;2023-04-03T06:05:48;7.70;61.60
75621;DHT22;64574;48.506;-2.750;2023-04-03T06:08:14;7.80;61.10
75621;DHT22;64574;48.506;-2.750;2023-04-03T06:10:40;8.00;61.10
75621;DHT22;64574;48.506;-2.750;2023-04-03T06:13:06;8.00;61.20
75621;DHT22;64574;48.506;-2.750;2023-04-03T06:15:32;8.00;61.50
75621;DHT22;64574;48.506;-2.750;2023-04-03T06:17:58;8.00;62.00
75621;DHT22;64574;48.506;-2.750;2023-04-03T06:20:23;8.00;62.20
75621;DHT22;64574;48.506;-2.750;2023-04-03T06:22:49;8.00;62.10
75621;DHT22;64574;48.506;-2.750;2023-04-03T06:25:16;8.00;62.20
75621;DHT22;64574;48.506;-2.750;2023-04-03T06:27:44;7.90;62.30
75621;DHT22;64574;48.506;-2.750;2023-04-03T06:30:10;8.00;62.20
75621;DHT22;64574;48.506;-2.750;2023-04-03T06:32:37;7.80;62.00
75621;DHT22;64574;48.506;-2.750;2023-04-03T06:35:04;7.90;62.00
75621;DHT22;64574;48.506;-2.750;2023-04-03T06:37:30;7.90;61.70
75621;DHT22;64574;48.506;-2.750;2023-04-03T06:39:56;7.90;61.60
75621;DHT22;64574;48.506;-2.750;2023-04-03T06:42:23;7.80;61.50
75621;DHT22;64574;48.506;-2.750;2023-04-03T06:44:48;7.80;61.90
75621;DHT22;64574;48.506;-2.750;2023-04-03T06:47:15;7.80;61.60
75621;DHT22;64574;48.506;-2.750;2023-04-03T06:49:42;7.80;61.90
75621;DHT22;64574;48.506;-2.750;2023-04-03T06:52:08;7.60;61.90
75621;DHT22;64574;48.506;-2.750;2023-04-03T06:54:35;7.50;62.30
75621;DHT22;64574;48.506;-2.750;2023-04-03T06:57:01;7.70;62.20
75621;DHT22;64574;48.506;-2.750;2023-04-03T06:59:27;7.80;61.60
75621;DHT22;64574;48.506;-2.750;2023-04-03T07:01:53;7.50;62.00
75621;DHT22;64574;48.506;-2.750;2023-04-03T07:04:19;7.50;62.10
75621;DHT22;64574;48.506;-2.750;2023-04-03T07:06:46;7.50;62.30
75621;DHT22;64574;48.506;-2.750;2023-04-03T07:09:14;7.50;61.60
75621;DHT22;64574;48.506;-2.750;2023-04-03T07:11:40;7.30;61.70
75621;DHT22;64574;48.506;-2.750;2023-04-03T07:14:06;7.20;62.00
75621;DHT22;64574;48.506;-2.750;2023-04-03T07:16:34;7.40;61.30
75621;DHT22;64574;48.506;-2.750;2023-04-03T07:19:00;7.60;61.10
75621;DHT22;64574;48.506;-2.750;2023-04-03T07:21:27;7.50;61.40
75621;DHT22;64574;48.506;-2.750;2023-04-03T07:23:53;7.40;61.90
75621;DHT22;64574;48.506;-2.750;2023-04-03T07:26:19;7.60;61.90
75621;DHT22;64574;48.506;-2.750;2023-04-03T07:28:48;7.70;61.60
75621;DHT22;64574;48.506;-2.750;2023-04-03T07:31:14;7.70;61.60
75621;DHT22;64574;48.506;-2.750;2023-04-03T07:33:42;7.60;61.00
75621;DHT22;64574;48.506;-2.750;2023-04-03T07:36:09;7.50;61.30
75621;DHT22;64574;48.506;-2.750;2023-04-03T07:38:36;7.50;60.50
75621;DHT22;64574;48.506;-2.750;2023-04-03T07:41:03;7.30;61.30
75621;DHT22;64574;48.506;-2.750;2023-04-03T07:43:29;7.60;60.10
75621;DHT22;64574;48.506;-2.750;2023-04-03T07:45:54;7.40;60.40
75621;DHT22;64574;48.506;-2.750;2023-04-03T07:48:22;7.50;60.10
75621;DHT22;64574;48.506;-2.750;2023-04-03T07:50:48;7.40;60.40
75621;DHT22;64574;48.506;-2.750;2023-04-03T07:53:15;7.40;60.20
75621;DHT22;64574;48.506;-2.750;2023-04-03T07:55:40;7.40;60.40
75621;DHT22;64574;48.506;-2.750;2023-04-03T07:58:15;7.50;60.50
75621;DHT22;64574;48.506;-2.750;2023-04-03T08:00:41;7.50;60.00
75621;DHT22;64574;48.506;-2.750;2023-04-03T08:03:08;7.20;60.60
75621;DHT22;64574;48.506;-2.750;2023-04-03T08:05:38;7.20;60.30
75621;DHT22;64574;48.506;-2.750;2023-04-03T08:08:05;7.20;59.80
75621;DHT22;64574;48.506;-2.750;2023-04-03T08:10:32;7.30;59.70
75621;DHT22;64574;48.506;-2.750;2023-04-03T08:12:58;7.40;59.20
75621;DHT22;64574;48.506;-2.750;2023-04-03T08:15:23;7.10;59.70
75621;DHT22;64574;48.506;-2.750;2023-04-03T08:17:50;7.10;60.30
75621;DHT22;64574;48.506;-2.750;2023-04-03T08:20:16;7.50;59.70
75621;DHT22;64574;48.506;-2.750;2023-04-03T08:22:42;7.40;59.60
75621;DHT22;64574;48.506;-2.750;2023-04-03T08:25:08;7.50;58.80
75621;DHT22;64574;48.506;-2.750;2023-04-03T08:27:34;7.30;58.80
75621;DHT22;64574;48.506;-2.750;2023-04-03T08:30:00;7.60;58.30
75621;DHT22;64574;48.506;-2.750;2023-04-03T08:32:26;7.50;58.40
75621;DHT22;64574;48.506;-2.750;2023-04-03T08:34:52;7.20;58.70
75621;DHT22;64574;48.506;-2.750;2023-04-03T08:37:18;7.50;58.10
75621;DHT22;64574;48.506;-2.750;2023-04-03T08:39:44;7.10;58.70
75621;DHT22;64574;48.506;-2.750;2023-04-03T08:45:12;7.50;58.40
75621;DHT22;64574;48.506;-2.750;2023-04-03T08:50:14;7.40;58.30
75621;DHT22;64574;48.506;-2.750;2023-04-03T08:52:56;7.40;58.70
75621;DHT22;64574;48.506;-2.750;2023-04-03T08:55:51;7.50;58.20
75621;DHT22;64574;48.506;-2.750;2023-04-03T08:58:26;7.80;58.00
75621;DHT22;64574;48.506;-2.750;2023-04-03T09:03:25;7.70;58.40
75621;DHT22;64574;48.506;-2.750;2023-04-03T09:06:23;7.60;58.10
75621;DHT22;64574;48.506;-2.750;2023-04-03T09:09:21;7.50;58.20
75621;DHT22;64574;48.506;-2.750;2023-04-03T09:14:38;7.70;57.80
75621;DHT22;64574;48.506;-2.750;2023-04-03T09:17:25;7.80;57.90
75621;DHT22;64574;48.506;-2.750;2023-04-03T09:20:03;7.70;57.40
75621;DHT22;64574;48.506;-2.750;2023-04-03T09:22:37;7.80;57.20
75621;DHT22;64574;48.506;-2.750;2023-04-03T09:25:15;7.50;57.70
75621;DHT22;64574;48.506;-2.750;2023-04-03T09:27:42;7.50;57.10
75621;DHT22;64574;48.506;-2.750;2023-04-03T09:30:23;7.50;57.30
75621;DHT22;64574;48.506;-2.750;2023-04-03T09:32:54;7.50;57.90
75621;DHT22;64574;48.506;-2.750;2023-04-03T09:35:26;7.50;57.60
75621;DHT22;64574;48.506;-2.750;2023-04-03T09:38:14;7.40;57.70
75621;DHT22;64574;48.506;-2.750;2023-04-03T09:40:42;7.00;58.00
75621;DHT22;64574;48.506;-2.750;2023-04-03T09:43:30;7.30;58.00
75621;DHT22;64574;48.506;-2.750;2023-04-03T09:46:16;7.50;57.70
75621;DHT22;64574;48.506;-2.750;2023-04-03T09:48:56;7.60;57.40
75621;DHT22;64574;48.506;-2.750;2023-04-03T09:51:24;7.00;58.10
75621;DHT22;64574;48.506;-2.750;2023-04-03T09:53:51;7.20;58.20
75621;DHT22;64574;48.506;-2.750;2023-04-03T09:58:51;7.40;57.90
75621;DHT22;64574;48.506;-2.750;2023-04-03T10:01:35;7.20;57.90
75621;DHT22;64574;48.506;-2.750;2023-04-03T10:04:18;7.20;57.70
75621;DHT22;64574;48.506;-2.750;2023-04-03T10:06:49;7.40;58.10
75621;DHT22;64574;48.506;-2.750;2023-04-03T10:09:30;7.50;57.80
75621;DHT22;64574;48.506;-2.750;2023-04-03T10:12:03;7.50;57.70
75621;DHT22;64574;48.506;-2.750;2023-04-03T10:14:34;7.40;57.10
75621;DHT22;64574;48.506;-2.750;2023-04-03T10:28:11;8.00;56.60
75621;DHT22;64574;48.506;-2.750;2023-04-03T10:30:46;8.00;56.60
75621;DHT22;64574;48.506;-2.750;2023-04-03T10:45:29;7.80;57.20
75621;DHT22;64574;48.506;-2.750;2023-04-03T10:53:34;8.00;57.60
75621;DHT22;64574;48.506;-2.750;2023-04-03T10:56:21;8.00;57.50
75621;DHT22;64574;48.506;-2.750;2023-04-03T10:58:58;8.10;57.60
75621;DHT22;64574;48.506;-2.750;2023-04-03T11:01:31;8.10;57.30
75621;DHT22;64574;48.506;-2.750;2023-04-03T11:03:59;7.80;57.40
75621;DHT22;64574;48.506;-2.750;2023-04-03T11:09:26;8.00;57.90
75621;DHT22;64574;48.506;-2.750;2023-04-03T11:12:02;8.20;57.30
75621;DHT22;64574;48.506;-2.750;2023-04-03T11:14:34;8.10;56.60
75621;DHT22;64574;48.506;-2.750;2023-04-03T11:20:10;8.00;58.50
75621;DHT22;64574;48.506;-2.750;2023-04-03T11:22:42;8.00;57.60
75621;DHT22;64574;48.506;-2.750;2023-04-03T11:27:51;8.30;56.80
75621;DHT22;64574;48.506;-2.750;2023-04-03T11:34:04;8.50;58.00
75621;DHT22;64574;48.506;-2.750;2023-04-03T11:36:43;8.40;57.60
75621;DHT22;64574;48.506;-2.750;2023-04-03T11:39:23;8.60;56.80
75621;DHT22;64574;48.506;-2.750;2023-04-03T11:41:50;8.50;56.20
75621;DHT22;64574;48.506;-2.750;2023-04-03T11:44:35;8.50;57.10
75621;DHT22;64574;48.506;-2.750;2023-04-03T11:47:07;8.60;57.50
75621;DHT22;64574;48.506;-2.750;2023-04-03T11:49:59;8.70;57.70
75621;DHT22;64574;48.506;-2.750;2023-04-03T12:00:49;8.40;57.40
75621;DHT22;64574;48.506;-2.750;2023-04-03T12:16:33;8.50;58.20
75621;DHT22;64574;48.506;-2.750;2023-04-03T12:24:29;8.70;58.50
75621;DHT22;64574;48.506;-2.750;2023-04-03T12:27:27;8.80;58.20
75621;DHT22;64574;48.506;-2.750;2023-04-03T12:30:01;8.60;58.50
75621;DHT22;64574;48.506;-2.750;2023-04-03T12:36:05;8.70;58.90
75621;DHT22;64574;48.506;-2.750;2023-04-03T12:38:58;8.60;59.50
75621;DHT22;64574;48.506;-2.750;2023-04-03T12:41:44;8.90;59.70
75621;DHT22;64574;48.506;-2.750;2023-04-03T12:47:28;8.70;59.00
75621;DHT22;64574;48.506;-2.750;2023-04-03T12:49:55;8.80;59.30
75621;DHT22;64574;48.506;-2.750;2023-04-03T12:52:32;8.90;59.80
75621;DHT22;64574;48.506;-2.750;2023-04-03T12:55:02;8.80;59.30
75621;DHT22;64574;48.506;-2.750;2023-04-03T12:57:30;8.90;59.30
75621;DHT22;64574;48.506;-2.750;2023-04-03T12:59:56;8.70;59.10
75621;DHT22;64574;48.506;-2.750;2023-04-03T13:02:25;8.70;59.10
75621;DHT22;64574;48.506;-2.750;2023-04-03T13:04:53;8.80;59.80
75621;DHT22;64574;48.506;-2.750;2023-04-03T13:07:25;8.80;59.60
75621;DHT22;64574;48.506;-2.750;2023-04-03T13:12:28;8.70;60.00
75621;DHT22;64574;48.506;-2.750;2023-04-03T13:14:57;8.90;59.50
75621;DHT22;64574;48.506;-2.750;2023-04-03T13:17:24;8.80;59.90
75621;DHT22;64574;48.506;-2.750;2023-04-03T13:19:50;8.80;60.10
75621;DHT22;64574;48.506;-2.750;2023-04-03T13:22:34;8.90;60.10
75621;DHT22;64574;48.506;-2.750;2023-04-03T13:25:07;9.00;59.80
75621;DHT22;64574;48.506;-2.750;2023-04-03T13:27:33;9.00;59.60
75621;DHT22;64574;48.506;-2.750;2023-04-03T13:30:00;9.00;60.10
75621;DHT22;64574;48.506;-2.750;2023-04-03T13:32:28;9.00;59.40
75621;DHT22;64574;48.506;-2.750;2023-04-03T13:34:55;9.00;60.20
75621;DHT22;64574;48.506;-2.750;2023-04-03T13:37:30;9.00;60.00
75621;DHT22;64574;48.506;-2.750;2023-04-03T13:40:09;9.10;59.60
75621;DHT22;64574;48.506;-2.750;2023-04-03T13:42:38;9.00;59.20
75621;DHT22;64574;48.506;-2.750;2023-04-03T13:45:26;9.20;59.60
75621;DHT22;64574;48.506;-2.750;2023-04-03T13:48:08;9.20;59.30
75621;DHT22;64574;48.506;-2.750;2023-04-03T13:51:07;9.20;59.00
75621;DHT22;64574;48.506;-2.750;2023-04-03T13:54:19;9.00;59.90
75621;DHT22;64574;48.506;-2.750;2023-04-03T13:56:45;9.10;60.00
75621;DHT22;64574;48.506;-2.750;2023-04-03T14:04:17;9.20;59.80
75621;DHT22;64574;48.506;-2.750;2023-04-03T14:06:45;9.30;59.60
75621;DHT22;64574;48.506;-2.750;2023-04-03T14:09:11;9.20;59.30
75621;DHT22;64574;48.506;-2.750;2023-04-03T14:11:37;9.30;59.50
75621;DHT22;64574;48.506;-2.750;2023-04-03T14:17:13;9.40;59.30
75621;DHT22;64574;48.506;-2.750;2023-04-03T14:19:40;9.50;58.40
75621;DHT22;64574;48.506;-2.750;2023-04-03T14:22:18;9.40;58.40
75621;DHT22;64574;48.506;-2.750;2023-04-03T14:24:44;9.40;59.00
75621;DHT22;64574;48.506;-2.750;2023-04-03T14:27:27;9.50;59.10
75621;DHT22;64574;48.506;-2.750;2023-04-03T14:29:55;9.50;58.60
75621;DHT22;64574;48.506;-2.750;2023-04-03T14:32:22;9.50;58.50
75621;DHT22;64574;48.506;-2.750;2023-04-03T14:34:49;9.50;58.50
75621;DHT22;64574;48.506;-2.750;2023-04-03T14:37:17;9.60;58.50
75621;DHT22;64574;48.506;-2.750;2023-04-03T14:39:44;9.60;58.00
75621;DHT22;64574;48.506;-2.750;2023-04-03T14:42:17;9.80;58.20
75621;DHT22;64574;48.506;-2.750;2023-04-03T14:44:42;9.80;58.00
75621;DHT22;64574;48.506;-2.750;2023-04-03T14:47:13;9.80;58.10
75621;DHT22;64574;48.506;-2.750;2023-04-03T14:49:39;10.00;57.80
75621;DHT22;64574;48.506;-2.750;2023-04-03T14:52:06;9.80;58.00
75621;DHT22;64574;48.506;-2.750;2023-04-03T14:54:31;9.90;57.90
75621;DHT22;64574;48.506;-2.750;2023-04-03T14:56:59;9.80;58.00
75621;DHT22;64574;48.506;-2.750;2023-04-03T14:59:26;9.80;57.60
75621;DHT22;64574;48.506;-2.750;2023-04-03T15:01:52;9.70;57.90
75621;DHT22;64574;48.506;-2.750;2023-04-03T15:04:20;9.80;58.20
75621;DHT22;64574;48.506;-2.750;2023-04-03T15:06:47;10.00;57.60
75621;DHT22;64574;48.506;-2.750;2023-04-03T15:09:25;10.00;57.80
75621;DHT22;64574;48.506;-2.750;2023-04-03T15:11:52;9.70;57.20
75621;DHT22;64574;48.506;-2.750;2023-04-03T15:14:19;9.80;57.80
75621;DHT22;64574;48.506;-2.750;2023-04-03T15:16:45;9.90;57.70
75621;DHT22;64574;48.506;-2.750;2023-04-03T15:19:11;9.90;58.00
75621;DHT22;64574;48.506;-2.750;2023-04-03T15:21:37;10.00;57.60
75621;DHT22;64574;48.506;-2.750;2023-04-03T15:24:04;10.00;57.90
75621;DHT22;64574;48.506;-2.750;2023-04-03T15:26:30;10.00;57.90
75621;DHT22;64574;48.506;-2.750;2023-04-03T15:28:56;10.00;57.90
75621;DHT22;64574;48.506;-2.750;2023-04-03T15:31:22;10.20;58.10
75621;DHT22;64574;48.506;-2.750;2023-04-03T15:33:48;10.20;58.00
75621;DHT22;64574;48.506;-2.750;2023-04-03T15:36:13;10.20;57.20
75621;DHT22;64574;48.506;-2.750;2023-04-03T15:38:39;10.30;57.50
75621;DHT22;64574;48.506;-2.750;2023-04-03T15:41:05;10.50;57.10
75621;DHT22;64574;48.506;-2.750;2023-04-03T15:43:31;10.50;56.80
75621;DHT22;64574;48.506;-2.750;2023-04-03T15:45:59;10.40;57.20
75621;DHT22;64574;48.506;-2.750;2023-04-03T15:48:25;10.40;57.40
75621;DHT22;64574;48.506;-2.750;2023-04-03T15:50:51;10.30;57.90
75621;DHT22;64574;48.506;-2.750;2023-04-03T15:53:17;10.30;57.80
75621;DHT22;64574;48.506;-2.750;2023-04-03T15:55:43;10.30;56.90
75621;DHT22;64574;48.506;-2.750;2023-04-03T15:58:08;10.30;57.30
75621;DHT22;64574;48.506;-2.750;2023-04-03T16:00:35;10.30;57.60
75621;DHT22;64574;48.506;-2.750;2023-04-03T16:03:05;10.40;56.90
75621;DHT22;64574;48.506;-2.750;2023-04-03T16:05:32;10.20;58.00
75621;DHT22;64574;48.506;-2.750;2023-04-03T16:07:59;10.20;57.70
75621;DHT22;64574;48.506;-2.750;2023-04-03T16:10:25;10.20;57.30
75621;DHT22;64574;48.506;-2.750;2023-04-03T16:12:51;10.20;57.40
75621;DHT22;64574;48.506;-2.750;2023-04-03T16:15:17;10.30;57.50
75621;DHT22;64574;48.506;-2.750;2023-04-03T16:17:43;10.30;57.70
75621;DHT22;64574;48.506;-2.750;2023-04-03T16:20:11;10.30;57.70
75621;DHT22;64574;48.506;-2.750;2023-04-03T16:22:38;10.30;57.90
75621;DHT22;64574;48.506;-2.750;2023-04-03T16:25:06;10.30;58.50
75621;DHT22;64574;48.506;-2.750;2023-04-03T16:27:32;10.40;58.40
75621;DHT22;64574;48.506;-2.750;2023-04-03T16:29:58;10.30;58.80
75621;DHT22;64574;48.506;-2.750;2023-04-03T16:32:29;10.20;59.00
75621;DHT22;64574;48.506;-2.750;2023-04-03T16:34:56;10.10;59.90
75621;DHT22;64574;48.506;-2.750;2023-04-03T16:37:21;10.30;59.90
75621;DHT22;64574;48.506;-2.750;2023-04-03T16:39:47;10.20;60.00
75621;DHT22;64574;48.506;-2.750;2023-04-03T16:42:13;10.20;59.80
75621;DHT22;64574;48.506;-2.750;2023-04-03T16:44:39;10.20;60.10
75621;DHT22;64574;48.506;-2.750;2023-04-03T16:47:05;10.30;60.20
75621;DHT22;64574;48.506;-2.750;2023-04-03T16:49:32;10.30;60.40
75621;DHT22;64574;48.506;-2.750;2023-04-03T16:51:59;10.10;60.70
75621;DHT22;64574;48.506;-2.750;2023-04-03T16:54:26;10.10;60.90
75621;DHT22;64574;48.506;-2.750;2023-04-03T16:56:51;10.10;61.30
75621;DHT22;64574;48.506;-2.750;2023-04-03T16:59:17;10.30;61.30
75621;DHT22;64574;48.506;-2.750;2023-04-03T17:01:43;10.30;61.40
75621;DHT22;64574;48.506;-2.750;2023-04-03T17:04:08;10.20;61.70
75621;DHT22;64574;48.506;-2.750;2023-04-03T17:06:34;10.40;61.60
75621;DHT22;64574;48.506;-2.750;2023-04-03T17:09:00;10.30;61.90
75621;DHT22;64574;48.506;-2.750;2023-04-03T17:11:27;10.10;62.20
75621;DHT22;64574;48.506;-2.750;2023-04-03T17:13:53;10.30;62.20
75621;DHT22;64574;48.506;-2.750;2023-04-03T17:16:18;10.20;62.00
75621;DHT22;64574;48.506;-2.750;2023-04-03T17:18:44;10.30;61.50
75621;DHT22;64574;48.506;-2.750;2023-04-03T17:21:11;10.40;61.30
75621;DHT22;64574;48.506;-2.750;2023-04-03T17:23:39;10.40;60.80
75621;DHT22;64574;48.506;-2.750;2023-04-03T17:26:05;10.30;60.70